Time;durP1;ratioP1;P1;durP2;ratioP2;P2;SDS_P1;SDS_P2;PMS_P1;PMS_P2;Temp;Humidity;BMP_temperature;BMP_pressure;BME280_temperature;BME280_humidity;BME280_pressure;Samples;Min_cycle;Max_cycle;Signal;HPM_P1;HPM_P2
2023/09/30 00:00:54;;;;;;;;;;;18.70;53.50;;;;;;5043496;27;93611;-61
2023/09/30 00:03:20;;;;;;;;;;;18.70;53.50;;;;;;5040937;28;92230;-60
2023/09/30 00:05:45;;;;;;;;;;;18.70;53.50;;;;;;5041322;28;93160;-59
2023/09/30 00:08:11;;;;;;;;;;;18.70;53.60;;;;;;5040776;28;93205;-61
2023/09/30 00:10:36;;;;;;;;;;;18.70;53.60;;;;;;5040727;27;92186;-60
2023/09/30 00:13:02;;;;;;;;;;;18.70;53.60;;;;;;5040748;28;93110;-60
2023/09/30 00:15:27;;;;;;;;;;;18.60;53.50;;;;;;5041016;27;92430;-60
2023/09/30 00:17:53;;;;;;;;;;;18.70;53.60;;;;;;5041008;28;92188;-61
2023/09/30 00:20:19;;;;;;;;;;;18.60;53.50;;;;;;5040950;28;92578;-60
2023/09/30 00:22:44;;;;;;;;;;;18.60;53.50;;;;;;5043051;28;93445;-60
2023/09/30 00:25:10;;;;;;;;;;;18.60;53.60;;;;;;5040889;27;93502;-61
2023/09/30 00:27:36;;;;;;;;;;;18.60;53.50;;;;;;5039588;28;93211;-60
2023/09/30 00:30:03;;;;;;;;;;;18.60;53.40;;;;;;5040833;27;92163;-60
2023/09/30 00:32:29;;;;;;;;;;;18.60;53.50;;;;;;5040651;27;92886;-60
2023/09/30 00:34:54;;;;;;;;;;;18.60;53.50;;;;;;5040289;28;93591;-60
2023/09/30 00:37:20;;;;;;;;;;;18.60;53.50;;;;;;5040793;28;92217;-60
2023/09/30 00:39:46;;;;;;;;;;;18.60;53.60;;;;;;5041147;28;91728;-61
2023/09/30 00:42:12;;;;;;;;;;;18.50;53.50;;;;;;5039837;27;93733;-61
2023/09/30 00:44:37;;;;;;;;;;;18.50;53.50;;;;;;5043295;27;92175;-60
2023/09/30 00:47:03;;;;;;;;;;;18.50;53.50;;;;;;5039326;28;94653;-60
2023/09/30 00:49:29;;;;;;;;;;;18.50;53.50;;;;;;5040390;28;92163;-61
2023/09/30 00:51:54;;;;;;;;;;;18.50;53.40;;;;;;5040526;27;92524;-60
2023/09/30 00:54:21;;;;;;;;;;;18.50;53.50;;;;;;5039902;28;93395;-61
2023/09/30 00:56:48;;;;;;;;;;;18.50;53.50;;;;;;5040247;27;93411;-60
2023/09/30 00:59:14;;;;;;;;;;;18.50;53.00;;;;;;5039852;27;92703;-60
2023/09/30 01:01:40;;;;;;;;;;;18.50;53.50;;;;;;5038879;27;93161;-60
2023/09/30 01:04:06;;;;;;;;;;;18.50;53.50;;;;;;5040906;27;91444;-60
2023/09/30 01:06:32;;;;;;;;;;;18.40;53.50;;;;;;5043161;28;92010;-60
2023/09/30 01:08:57;;;;;;;;;;;18.40;53.50;;;;;;5040294;28;92295;-60
2023/09/30 01:11:24;;;;;;;;;;;18.40;53.50;;;;;;5039161;28;92947;-60
2023/09/30 01:13:49;;;;;;;;;;;18.40;53.50;;;;;;5039099;28;93230;-60
2023/09/30 01:16:15;;;;;;;;;;;18.40;53.00;;;;;;5040103;28;92174;-60
2023/09/30 01:18:42;;;;;;;;;;;18.40;53.50;;;;;;5040265;28;92666;-60
2023/09/30 01:21:08;;;;;;;;;;;18.40;54.00;;;;;;5039457;27;93261;-60
2023/09/30 01:23:35;;;;;;;;;;;18.40;53.50;;;;;;5039563;28;92043;-60
2023/09/30 01:26:18;;;;;;;;;;;18.40;53.50;;;;;;5042479;27;92900;-60
2023/09/30 01:28:44;;;;;;;;;;;18.40;53.50;;;;;;5030614;28;91848;-60
2023/09/30 01:31:10;;;;;;;;;;;18.30;53.50;;;;;;5038559;28;94989;-61
2023/09/30 01:33:35;;;;;;;;;;;18.30;53.50;;;;;;5039402;28;92995;-59
2023/09/30 01:36:01;;;;;;;;;;;18.30;53.50;;;;;;5039149;28;93114;-60
2023/09/30 01:38:26;;;;;;;;;;;18.30;53.50;;;;;;5040037;28;93590;-60
2023/09/30 01:40:54;;;;;;;;;;;18.30;53.50;;;;;;5039212;28;93177;-60
2023/09/30 01:43:19;;;;;;;;;;;18.30;53.50;;;;;;5038407;27;92582;-60
2023/09/30 01:45:45;;;;;;;;;;;18.30;53.50;;;;;;5039717;27;92885;-61
2023/09/30 01:48:11;;;;;;;;;;;18.30;53.50;;;;;;5042265;28;93558;-60
2023/09/30 01:50:39;;;;;;;;;;;18.30;53.50;;;;;;5035717;28;92568;-60
2023/09/30 01:53:09;;;;;;;;;;;18.20;53.60;;;;;;5039512;28;92589;-61
2023/09/30 01:55:35;;;;;;;;;;;18.20;53.40;;;;;;5039254;28;92302;-60
2023/09/30 01:58:01;;;;;;;;;;;18.20;53.40;;;;;;5039212;27;92820;-61
2023/09/30 02:00:28;;;;;;;;;;;18.20;53.40;;;;;;5037379;27;93950;-60
2023/09/30 02:02:54;;;;;;;;;;;18.20;53.40;;;;;;5038897;28;92202;-60
2023/09/30 02:05:20;;;;;;;;;;;18.20;53.50;;;;;;5039420;27;92596;-60
2023/09/30 02:07:45;;;;;;;;;;;18.20;53.50;;;;;;5039037;28;93390;-60
2023/09/30 02:10:11;;;;;;;;;;;18.20;53.50;;;;;;5042509;28;92116;-60
2023/09/30 02:12:37;;;;;;;;;;;18.20;53.50;;;;;;5038296;27;93321;-60
2023/09/30 02:15:07;;;;;;;;;;;18.20;53.50;;;;;;5038694;28;92156;-60
2023/09/30 02:17:32;;;;;;;;;;;18.10;53.40;;;;;;5039730;27;93795;-61
2023/09/30 02:19:58;;;;;;;;;;;18.10;53.50;;;;;;5038653;27;93565;-60
2023/09/30 02:22:24;;;;;;;;;;;18.10;53.50;;;;;;5038799;27;92195;-61
2023/09/30 02:24:50;;;;;;;;;;;18.10;53.50;;;;;;5038587;27;92980;-60
2023/09/30 02:27:16;;;;;;;;;;;18.10;53.50;;;;;;5040151;27;93352;-60
2023/09/30 02:29:41;;;;;;;;;;;18.10;53.50;;;;;;5039799;27;92773;-60
2023/09/30 02:32:07;;;;;;;;;;;18.10;53.50;;;;;;5041687;28;92455;-60
2023/09/30 02:34:33;;;;;;;;;;;18.10;53.50;;;;;;5037946;28;92565;-60
2023/09/30 02:36:59;;;;;;;;;;;18.00;53.40;;;;;;5039106;27;92128;-60
2023/09/30 02:39:26;;;;;;;;;;;18.10;53.40;;;;;;5038376;27;93162;-61
2023/09/30 02:41:52;;;;;;;;;;;18.10;53.50;;;;;;5039201;27;91421;-60
2023/09/30 02:44:18;;;;;;;;;;;18.00;53.50;;;;;;5038240;27;92252;-60
2023/09/30 02:46:43;;;;;;;;;;;18.00;53.50;;;;;;5038461;28;94264;-60
2023/09/30 02:49:09;;;;;;;;;;;18.00;53.50;;;;;;5038232;28;93105;-61
2023/09/30 02:51:34;;;;;;;;;;;18.00;53.50;;;;;;5038754;28;93045;-60
2023/09/30 02:54:00;;;;;;;;;;;18.00;53.50;;;;;;5041571;27;93489;-60
2023/09/30 02:56:26;;;;;;;;;;;18.00;53.50;;;;;;5038812;28;92577;-60
2023/09/30 02:58:52;;;;;;;;;;;17.90;54.10;;;;;;5037184;27;93874;-60
2023/09/30 03:01:17;;;;;;;;;;;17.90;53.50;;;;;;5038270;27;92165;-60
2023/09/30 03:03:46;;;;;;;;;;;17.90;53.40;;;;;;5038527;27;92774;-60
2023/09/30 03:06:12;;;;;;;;;;;17.90;53.50;;;;;;5038543;27;92783;-61
2023/09/30 03:08:37;;;;;;;;;;;17.90;53.40;;;;;;5038591;28;92669;-61
2023/09/30 03:11:04;;;;;;;;;;;17.90;53.40;;;;;;5038471;28;92058;-61
2023/09/30 03:13:30;;;;;;;;;;;17.90;53.40;;;;;;5036902;27;94349;-61
2023/09/30 03:15:56;;;;;;;;;;;17.90;53.50;;;;;;5041155;27;92452;-61
2023/09/30 03:18:26;;;;;;;;;;;17.80;53.40;;;;;;5038023;27;92457;-60
2023/09/30 03:20:56;;;;;;;;;;;17.90;53.50;;;;;;5034271;28;92543;-60
2023/09/30 03:23:22;;;;;;;;;;;17.90;53.50;;;;;;5038296;27;92086;-60
2023/09/30 03:25:48;;;;;;;;;;;17.80;53.40;;;;;;5037845;28;93593;-60
2023/09/30 03:28:14;;;;;;;;;;;17.80;53.50;;;;;;5040522;27;92178;-61
2023/09/30 03:30:40;;;;;;;;;;;17.80;53.50;;;;;;5038957;27;92846;-60
2023/09/30 03:33:06;;;;;;;;;;;17.80;53.40;;;;;;5037628;27;93335;-60
2023/09/30 03:35:32;;;;;;;;;;;17.80;53.50;;;;;;5041456;28;92095;-60
2023/09/30 03:37:58;;;;;;;;;;;17.70;53.50;;;;;;5036821;27;93104;-60
2023/09/30 03:40:27;;;;;;;;;;;17.80;53.50;;;;;;5036527;28;92230;-57
2023/09/30 03:42:54;;;;;;;;;;;17.80;53.50;;;;;;5037971;27;92567;-60
2023/09/30 03:45:19;;;;;;;;;;;17.70;53.50;;;;;;5037652;27;93217;-60
2023/09/30 03:47:47;;;;;;;;;;;17.70;53.50;;;;;;5041545;28;92247;-61
2023/09/30 03:50:14;;;;;;;;;;;17.70;53.50;;;;;;5041428;27;92654;-60
2023/09/30 03:52:43;;;;;;;;;;;17.70;53.50;;;;;;5040819;27;93195;-61
2023/09/30 03:55:12;;;;;;;;;;;17.60;53.50;;;;;;5041757;27;91283;-60
2023/09/30 03:57:37;;;;;;;;;;;17.70;53.50;;;;;;5043935;27;92056;-60
2023/09/30 04:00:06;;;;;;;;;;;17.60;53.40;;;;;;5040594;27;92687;-60
2023/09/30 04:02:32;;;;;;;;;;;17.60;53.50;;;;;;5040045;28;93203;-60
2023/09/30 04:04:59;;;;;;;;;;;17.60;53.50;;;;;;5040823;28;92409;-60
2023/09/30 04:07:27;;;;;;;;;;;17.60;53.50;;;;;;5041198;28;92184;-60
2023/09/30 04:09:54;;;;;;;;;;;17.60;53.50;;;;;;5041183;28;92650;-60
2023/09/30 04:12:19;;;;;;;;;;;17.60;53.50;;;;;;5040786;28;93307;-60
2023/09/30 04:14:45;;;;;;;;;;;17.60;53.50;;;;;;5038944;28;92134;-60
2023/09/30 04:17:11;;;;;;;;;;;17.60;53.50;;;;;;5041297;28;92552;-60
2023/09/30 04:19:37;;;;;;;;;;;17.60;53.50;;;;;;5042650;28;95373;-60
2023/09/30 04:22:02;;;;;;;;;;;17.50;53.40;;;;;;5040113;27;92112;-61
2023/09/30 04:24:29;;;;;;;;;;;17.60;53.50;;;;;;5037828;27;93354;-60
2023/09/30 04:27:00;;;;;;;;;;;17.50;53.50;;;;;;5037181;27;93201;-60
2023/09/30 04:29:25;;;;;;;;;;;17.50;53.50;;;;;;5037571;28;93316;-60
2023/09/30 04:31:52;;;;;;;;;;;17.50;53.50;;;;;;5045984;27;92952;-60
2023/09/30 04:34:18;;;;;;;;;;;17.50;53.50;;;;;;5039871;27;92350;-60
2023/09/30 04:36:43;;;;;;;;;;;17.50;53.50;;;;;;5039278;28;92508;-60
2023/09/30 04:39:12;;;;;;;;;;;17.50;53.50;;;;;;5040161;28;93428;-60
2023/09/30 04:41:41;;;;;;;;;;;17.50;53.50;;;;;;5041274;27;92901;-60
2023/09/30 04:44:06;;;;;;;;;;;17.50;53.50;;;;;;5038771;27;92480;-60
2023/09/30 04:46:32;;;;;;;;;;;17.40;53.50;;;;;;5037560;28;92247;-60
2023/09/30 04:48:57;;;;;;;;;;;17.40;53.50;;;;;;5040681;28;92344;-60
2023/09/30 04:51:25;;;;;;;;;;;17.40;53.50;;;;;;5037542;27;94289;-59
2023/09/30 04:53:50;;;;;;;;;;;17.40;53.60;;;;;;5038052;27;93082;-60
2023/09/30 04:56:16;;;;;;;;;;;17.40;53.60;;;;;;5038659;28;95888;-62
2023/09/30 04:58:41;;;;;;;;;;;17.40;53.60;;;;;;5039026;28;93403;-60
2023/09/30 05:01:08;;;;;;;;;;;17.40;53.50;;;;;;5038740;27;92300;-60
2023/09/30 05:03:34;;;;;;;;;;;17.40;53.50;;;;;;5042085;27;92905;-60
2023/09/30 05:06:00;;;;;;;;;;;17.30;53.50;;;;;;5040161;27;92092;-60
2023/09/30 05:08:25;;;;;;;;;;;17.40;53.60;;;;;;5040079;27;92846;-60
2023/09/30 05:10:55;;;;;;;;;;;17.30;53.60;;;;;;5037305;27;93275;-60
2023/09/30 05:13:20;;;;;;;;;;;17.30;53.60;;;;;;5033369;27;92195;-60
2023/09/30 05:15:46;;;;;;;;;;;17.30;53.50;;;;;;5039125;27;93457;-60
2023/09/30 05:18:11;;;;;;;;;;;17.30;53.50;;;;;;5038253;27;93665;-61
2023/09/30 05:20:38;;;;;;;;;;;17.30;53.00;;;;;;5037994;27;93051;-62
2023/09/30 05:23:06;;;;;;;;;;;17.30;53.60;;;;;;5038415;27;92749;-60
2023/09/30 05:25:32;;;;;;;;;;;17.30;53.60;;;;;;5038348;28;92363;-60
2023/09/30 05:27:57;;;;;;;;;;;17.30;53.50;;;;;;5038147;27;92698;-61
2023/09/30 05:30:23;;;;;;;;;;;17.30;53.60;;;;;;5036378;27;95818;-60
2023/09/30 05:32:52;;;;;;;;;;;17.30;53.60;;;;;;5040500;28;92169;-62
2023/09/30 05:35:17;;;;;;;;;;;17.30;53.60;;;;;;5039417;27;92157;-63
2023/09/30 05:37:45;;;;;;;;;;;17.30;53.60;;;;;;5037167;27;93397;-60
2023/09/30 05:40:20;;;;;;;;;;;17.30;53.60;;;;;;5037303;27;93143;-60
2023/09/30 05:42:45;;;;;;;;;;;17.30;53.50;;;;;;5037340;28;92674;-60
2023/09/30 05:45:15;;;;;;;;;;;17.20;53.50;;;;;;5041588;27;93764;-60
2023/09/30 05:47:41;;;;;;;;;;;17.20;53.60;;;;;;5036254;27;92980;-62
2023/09/30 05:50:07;;;;;;;;;;;17.20;53.60;;;;;;5035573;28;93639;-62
2023/09/30 05:52:32;;;;;;;;;;;17.20;53.60;;;;;;5039743;27;92771;-61
2023/09/30 05:55:00;;;;;;;;;;;17.20;53.60;;;;;;5041094;27;92614;-62
2023/09/30 05:57:26;;;;;;;;;;;17.20;53.60;;;;;;5037378;27;92561;-62
2023/09/30 05:59:52;;;;;;;;;;;17.20;53.60;;;;;;5036734;27;92477;-60
2023/09/30 06:02:17;;;;;;;;;;;17.20;53.60;;;;;;5038381;28;92542;-59
2023/09/30 06:04:43;;;;;;;;;;;17.20;53.50;;;;;;5035709;27;94120;-60
2023/09/30 06:07:09;;;;;;;;;;;17.20;53.60;;;;;;5040015;27;92810;-60
2023/09/30 06:09:35;;;;;;;;;;;17.20;53.60;;;;;;5038604;27;93237;-60
2023/09/30 06:12:03;;;;;;;;;;;17.20;53.70;;;;;;5039415;27;92150;-59
2023/09/30 06:14:30;;;;;;;;;;;17.20;53.70;;;;;;5037080;27;92934;-60
2023/09/30 06:16:56;;;;;;;;;;;17.20;53.70;;;;;;5034053;27;94003;-60
2023/09/30 06:19:21;;;;;;;;;;;17.20;53.70;;;;;;5038814;28;92205;-60
2023/09/30 06:21:47;;;;;;;;;;;17.20;53.80;;;;;;5039081;27;92814;-60
2023/09/30 06:24:12;;;;;;;;;;;17.20;53.70;;;;;;5036638;27;93424;-60
2023/09/30 06:26:38;;;;;;;;;;;17.20;53.80;;;;;;5034683;28;92151;-60
2023/09/30 06:29:06;;;;;;;;;;;17.20;53.80;;;;;;5039553;28;95325;-60
2023/09/30 06:31:31;;;;;;;;;;;17.20;53.80;;;;;;5038102;27;92151;-59
2023/09/30 06:33:58;;;;;;;;;;;17.10;53.90;;;;;;5036985;27;92487;-59
2023/09/30 06:36:23;;;;;;;;;;;17.20;53.90;;;;;;5035871;27;93846;-58
2023/09/30 06:38:50;;;;;;;;;;;17.10;53.80;;;;;;5038919;28;92179;-60
2023/09/30 06:41:18;;;;;;;;;;;17.20;53.80;;;;;;5037525;27;93175;-59
2023/09/30 06:43:44;;;;;;;;;;;17.20;53.90;;;;;;5036122;27;93259;-60
2023/09/30 06:46:10;;;;;;;;;;;17.20;53.80;;;;;;5037768;27;92271;-60
2023/09/30 06:48:36;;;;;;;;;;;17.10;53.90;;;;;;5037943;28;92367;-60
2023/09/30 06:51:01;;;;;;;;;;;17.10;53.90;;;;;;5039822;27;93917;-59
2023/09/30 06:53:27;;;;;;;;;;;17.10;54.00;;;;;;5036088;27;93076;-59
2023/09/30 06:55:52;;;;;;;;;;;17.10;54.00;;;;;;5034364;27;93287;-60
2023/09/30 06:58:21;;;;;;;;;;;17.10;54.00;;;;;;5038694;27;92182;-60
2023/09/30 07:00:48;;;;;;;;;;;17.10;54.00;;;;;;5034955;27;95565;-60
2023/09/30 07:03:15;;;;;;;;;;;17.10;54.10;;;;;;5033487;27;96353;-60
2023/09/30 07:05:41;;;;;;;;;;;17.10;54.10;;;;;;5037559;28;92208;-59
2023/09/30 07:08:06;;;;;;;;;;;17.10;54.00;;;;;;5038563;28;92581;-59
2023/09/30 07:10:32;;;;;;;;;;;17.10;54.00;;;;;;5036767;27;93212;-60
2023/09/30 07:12:57;;;;;;;;;;;17.10;54.00;;;;;;5036834;27;92497;-59
2023/09/30 07:15:24;;;;;;;;;;;17.10;54.00;;;;;;5037755;28;94272;-59
2023/09/30 07:17:50;;;;;;;;;;;17.10;54.00;;;;;;5037061;27;93210;-60
2023/09/30 07:20:16;;;;;;;;;;;17.10;54.00;;;;;;5036573;27;93561;-60
2023/09/30 07:22:42;;;;;;;;;;;17.10;54.00;;;;;;5037759;27;92920;-60
2023/09/30 07:25:08;;;;;;;;;;;17.20;54.00;;;;;;5037998;28;92544;-59
2023/09/30 07:27:34;;;;;;;;;;;17.10;54.00;;;;;;5041100;27;92269;-60
2023/09/30 07:29:59;;;;;;;;;;;17.10;54.00;;;;;;5041750;27;93559;-60
2023/09/30 07:32:25;;;;;;;;;;;17.00;54.20;;;;;;5043453;27;92249;-59
2023/09/30 07:34:51;;;;;;;;;;;17.10;54.30;;;;;;5041189;27;92407;-60
2023/09/30 07:37:20;;;;;;;;;;;17.10;54.30;;;;;;5040068;27;92265;-59
2023/09/30 07:39:46;;;;;;;;;;;17.10;54.30;;;;;;5039349;27;92788;-59
2023/09/30 07:42:11;;;;;;;;;;;17.00;54.30;;;;;;5039569;27;94665;-59
2023/09/30 07:44:37;;;;;;;;;;;17.00;54.20;;;;;;5041645;28;92515;-60
2023/09/30 07:47:03;;;;;;;;;;;17.00;54.30;;;;;;5039846;27;92580;-60
2023/09/30 07:49:29;;;;;;;;;;;17.00;54.30;;;;;;5037799;27;93056;-59
2023/09/30 07:51:55;;;;;;;;;;;17.00;54.40;;;;;;5040735;28;92350;-59
2023/09/30 07:54:20;;;;;;;;;;;17.00;54.40;;;;;;5043905;28;92433;-60
2023/09/30 07:56:46;;;;;;;;;;;17.00;54.50;;;;;;5039102;27;93925;-60
2023/09/30 07:59:11;;;;;;;;;;;17.00;54.50;;;;;;5039564;27;92675;-60
2023/09/30 08:01:37;;;;;;;;;;;17.00;54.60;;;;;;5040371;28;93611;-59
2023/09/30 08:04:03;;;;;;;;;;;17.00;54.50;;;;;;5040294;27;92689;-60
2023/09/30 08:06:28;;;;;;;;;;;17.00;54.50;;;;;;5041666;27;94713;-59
2023/09/30 08:08:55;;;;;;;;;;;17.00;54.50;;;;;;5036880;27;94616;-59
2023/09/30 08:11:20;;;;;;;;;;;17.00;54.60;;;;;;5040301;28;92151;-60
2023/09/30 08:13:46;;;;;;;;;;;17.10;54.60;;;;;;5040522;28;92691;-60
2023/09/30 08:16:13;;;;;;;;;;;17.00;54.60;;;;;;5041565;27;93069;-60
2023/09/30 08:18:38;;;;;;;;;;;17.00;54.60;;;;;;5035292;27;92642;-60
2023/09/30 08:21:04;;;;;;;;;;;17.10;54.80;;;;;;5038504;28;96262;-59
2023/09/30 08:23:30;;;;;;;;;;;17.10;54.80;;;;;;5040537;27;92526;-59
2023/09/30 08:25:58;;;;;;;;;;;17.00;54.70;;;;;;5041696;27;92579;-59
2023/09/30 08:28:24;;;;;;;;;;;17.00;54.70;;;;;;5037663;27;93762;-60
2023/09/30 08:30:50;;;;;;;;;;;17.10;54.70;;;;;;5040070;27;93711;-59
2023/09/30 08:33:16;;;;;;;;;;;17.10;54.80;;;;;;5037680;27;93595;-59
2023/09/30 08:35:41;;;;;;;;;;;17.10;54.80;;;;;;5037744;27;93416;-60
2023/09/30 08:38:07;;;;;;;;;;;17.10;54.80;;;;;;5039967;28;92341;-59
2023/09/30 08:40:32;;;;;;;;;;;17.10;54.80;;;;;;5039666;28;93377;-59
2023/09/30 08:42:59;;;;;;;;;;;17.10;54.80;;;;;;5039067;27;92132;-62
2023/09/30 08:45:27;;;;;;;;;;;17.00;54.80;;;;;;5042231;27;92761;-62
2023/09/30 08:47:54;;;;;;;;;;;17.10;54.90;;;;;;5037683;28;92655;-61
2023/09/30 08:50:19;;;;;;;;;;;17.10;54.80;;;;;;5039669;28;92119;-62
2023/09/30 08:52:45;;;;;;;;;;;17.10;54.90;;;;;;5038032;27;92957;-62
2023/09/30 08:55:11;;;;;;;;;;;17.10;54.90;;;;;;5035338;27;94925;-62
2023/09/30 08:57:39;;;;;;;;;;;17.10;54.70;;;;;;5040156;28;92154;-62
2023/09/30 09:00:06;;;;;;;;;;;17.10;54.70;;;;;;5042759;27;92912;-62
2023/09/30 09:02:34;;;;;;;;;;;17.10;54.70;;;;;;5037504;27;94143;-62
2023/09/30 09:05:00;;;;;;;;;;;17.10;54.60;;;;;;5037546;27;92588;-61
2023/09/30 09:07:25;;;;;;;;;;;17.10;54.70;;;;;;5039559;28;93244;-62
2023/09/30 09:10:07;;;;;;;;;;;17.10;54.70;;;;;;5039745;27;92261;-62
2023/09/30 09:12:34;;;;;;;;;;;17.20;54.80;;;;;;5036274;27;95271;-61
2023/09/30 09:14:59;;;;;;;;;;;17.20;54.70;;;;;;5037260;28;93899;-62
2023/09/30 09:17:39;;;;;;;;;;;17.20;54.70;;;;;;5040254;28;92206;-61
2023/09/30 09:20:05;;;;;;;;;;;17.20;54.50;;;;;;5034553;27;94273;-62
2023/09/30 09:22:41;;;;;;;;;;;17.10;54.40;;;;;;5041063;27;93846;-61
2023/09/30 09:25:07;;;;;;;;;;;17.20;54.40;;;;;;5037583;28;92499;-62
2023/09/30 09:27:36;;;;;;;;;;;17.20;54.40;;;;;;5039381;28;93286;-62
2023/09/30 09:30:14;;;;;;;;;;;17.20;54.40;;;;;;5039715;27;92234;-62
2023/09/30 09:32:53;;;;;;;;;;;17.30;54.40;;;;;;5034596;27;94018;-62
2023/09/30 09:35:19;;;;;;;;;;;17.30;54.40;;;;;;5038906;27;93061;-61
2023/09/30 09:37:53;;;;;;;;;;;17.30;54.40;;;;;;5039439;27;91512;-62
2023/09/30 09:40:22;;;;;;;;;;;17.30;54.40;;;;;;5033859;28;92180;-62
2023/09/30 09:42:50;;;;;;;;;;;17.30;54.40;;;;;;5040291;27;93738;-61
2023/09/30 09:45:16;;;;;;;;;;;17.30;54.20;;;;;;5039112;28;93114;-62
2023/09/30 09:47:42;;;;;;;;;;;17.30;54.30;;;;;;5038119;27;92936;-61
2023/09/30 09:50:08;;;;;;;;;;;17.30;54.00;;;;;;5038394;27;92266;-62
2023/09/30 09:52:34;;;;;;;;;;;17.40;54.30;;;;;;5034090;28;93698;-62
2023/09/30 09:55:01;;;;;;;;;;;17.30;54.40;;;;;;5038978;27;93250;-62
2023/09/30 09:57:27;;;;;;;;;;;17.30;54.20;;;;;;5038105;27;92194;-62
2023/09/30 09:59:53;;;;;;;;;;;17.40;54.10;;;;;;5037484;27;92966;-62
2023/09/30 10:02:19;;;;;;;;;;;17.40;54.00;;;;;;5034860;28;92655;-61
2023/09/30 10:04:45;;;;;;;;;;;17.40;53.90;;;;;;5042211;28;92326;-62
2023/09/30 10:07:37;;;;;;;;;;;17.40;54.20;;;;;;5036218;27;93511;-62
2023/09/30 10:10:05;;;;;;;;;;;17.40;54.20;;;;;;5029418;27;93780;-62
2023/09/30 10:12:38;;;;;;;;;;;17.40;54.10;;;;;;5039169;27;93439;-62
2023/09/30 10:15:23;;;;;;;;;;;17.40;53.90;;;;;;5038157;27;93526;-61
2023/09/30 10:17:58;;;;;;;;;;;17.50;54.20;;;;;;5035264;27;92175;-62
2023/09/30 10:20:27;;;;;;;;;;;17.40;53.80;;;;;;5036561;27;92960;-60
2023/09/30 10:23:12;;;;;;;;;;;17.50;54.20;;;;;;5038705;27;93236;-62
2023/09/30 10:25:40;;;;;;;;;;;17.50;54.00;;;;;;5033763;27;92159;-62
2023/09/30 10:28:24;;;;;;;;;;;17.50;53.70;;;;;;5042484;27;92829;-61
2023/09/30 10:31:08;;;;;;;;;;;17.60;53.90;;;;;;5038194;28;92394;-62
2023/09/30 10:33:33;;;;;;;;;;;17.60;53.90;;;;;;5038612;28;92940;-62
2023/09/30 10:35:59;;;;;;;;;;;17.60;53.70;;;;;;5035360;27;94481;-62
2023/09/30 10:38:34;;;;;;;;;;;17.60;53.90;;;;;;5036472;27;92195;-62
2023/09/30 10:41:02;;;;;;;;;;;17.60;53.80;;;;;;5038878;27;92119;-62
2023/09/30 10:43:37;;;;;;;;;;;17.60;53.60;;;;;;5039332;27;93242;-62
2023/09/30 10:46:07;;;;;;;;;;;17.60;53.70;;;;;;5041964;27;92434;-62
2023/09/30 10:48:36;;;;;;;;;;;17.70;53.60;;;;;;5035995;27;92641;-62
2023/09/30 10:51:11;;;;;;;;;;;17.70;53.50;;;;;;5040621;27;93438;-62
2023/09/30 10:54:05;;;;;;;;;;;17.70;53.70;;;;;;5035056;27;92571;-62
2023/09/30 10:56:34;;;;;;;;;;;17.70;53.80;;;;;;5024881;27;93152;-62
2023/09/30 10:59:02;;;;;;;;;;;17.70;53.80;;;;;;5042433;27;92149;-62
2023/09/30 11:01:32;;;;;;;;;;;17.80;53.80;;;;;;5040673;27;92992;-61
2023/09/30 11:03:58;;;;;;;;;;;17.80;53.50;;;;;;5041762;27;93435;-61
2023/09/30 11:06:24;;;;;;;;;;;17.80;53.50;;;;;;5037128;27;92301;-62
2023/09/30 11:08:52;;;;;;;;;;;17.80;53.40;;;;;;5042270;28;92155;-62
2023/09/30 11:11:17;;;;;;;;;;;17.80;53.30;;;;;;5040147;28;93261;-62
2023/09/30 11:13:43;;;;;;;;;;;17.90;52.80;;;;;;5042624;27;94006;-62
2023/09/30 11:16:09;;;;;;;;;;;17.90;53.20;;;;;;5038334;27;92542;-62
2023/09/30 11:18:35;;;;;;;;;;;17.90;53.10;;;;;;5042466;28;91870;-61
2023/09/30 11:21:08;;;;;;;;;;;17.90;53.10;;;;;;5039940;27;92289;-62
2023/09/30 11:23:34;;;;;;;;;;;18.00;52.80;;;;;;5039270;27;93242;-62
2023/09/30 11:26:00;;;;;;;;;;;18.00;52.40;;;;;;5038316;28;93172;-62
2023/09/30 11:28:35;;;;;;;;;;;18.00;52.80;;;;;;5041868;28;93491;-62
2023/09/30 11:31:06;;;;;;;;;;;18.00;52.60;;;;;;5038922;27;92958;-62
2023/09/30 11:33:33;;;;;;;;;;;18.00;52.70;;;;;;5036424;27;93719;-62
2023/09/30 11:36:03;;;;;;;;;;;18.10;52.40;;;;;;5043852;27;92859;-61
2023/09/30 11:38:29;;;;;;;;;;;18.10;52.60;;;;;;5041053;27;92138;-62
2023/09/30 11:41:06;;;;;;;;;;;18.10;52.40;;;;;;5038757;27;92494;-62
2023/09/30 11:43:35;;;;;;;;;;;18.10;52.40;;;;;;5040268;27;92516;-62
2023/09/30 11:46:04;;;;;;;;;;;18.10;52.10;;;;;;5041528;27;92610;-62
2023/09/30 11:48:30;;;;;;;;;;;18.20;52.50;;;;;;5039954;27;92613;-62
2023/09/30 11:50:58;;;;;;;;;;;18.20;52.00;;;;;;5037086;27;94680;-62
2023/09/30 11:53:24;;;;;;;;;;;18.20;52.20;;;;;;5041178;28;92206;-62
2023/09/30 11:55:50;;;;;;;;;;;18.20;51.90;;;;;;5044064;28;92566;-62
2023/09/30 11:58:18;;;;;;;;;;;18.20;52.30;;;;;;5038875;27;93014;-61
2023/09/30 12:00:44;;;;;;;;;;;18.30;52.10;;;;;;5036476;28;93258;-61
2023/09/30 12:03:10;;;;;;;;;;;18.30;52.00;;;;;;5040606;28;93628;-61
2023/09/30 12:05:36;;;;;;;;;;;18.30;51.60;;;;;;5039530;27;94103;-62
2023/09/30 12:08:02;;;;;;;;;;;18.30;51.80;;;;;;5038667;27;92558;-62
2023/09/30 12:10:28;;;;;;;;;;;18.30;51.50;;;;;;5037143;28;93515;-62
2023/09/30 12:12:53;;;;;;;;;;;18.30;51.30;;;;;;5031811;28;92082;-62
2023/09/30 12:15:20;;;;;;;;;;;18.30;51.40;;;;;;5039144;27;93185;-62
2023/09/30 12:17:45;;;;;;;;;;;18.40;51.70;;;;;;5041892;27;93271;-62
2023/09/30 12:20:14;;;;;;;;;;;18.40;51.70;;;;;;5038748;27;92040;-62
2023/09/30 12:22:39;;;;;;;;;;;18.40;51.30;;;;;;5039472;28;93550;-61
2023/09/30 12:25:06;;;;;;;;;;;18.40;51.70;;;;;;5039759;27;92291;-62
2023/09/30 12:27:31;;;;;;;;;;;18.50;51.40;;;;;;5036229;27;92916;-62
2023/09/30 12:29:57;;;;;;;;;;;18.50;51.30;;;;;;5039238;28;93454;-62
2023/09/30 12:32:23;;;;;;;;;;;18.50;51.50;;;;;;5041655;28;91450;-62
2023/09/30 12:34:49;;;;;;;;;;;18.50;51.40;;;;;;5037516;27;92796;-62
2023/09/30 12:37:14;;;;;;;;;;;18.50;51.30;;;;;;5037622;27;93321;-62
2023/09/30 12:39:40;;;;;;;;;;;18.50;50.90;;;;;;5042159;28;93068;-61
2023/09/30 12:42:08;;;;;;;;;;;18.50;50.80;;;;;;5039557;27;94292;-62
2023/09/30 12:44:34;;;;;;;;;;;18.50;51.10;;;;;;5036403;27;92179;-61
2023/09/30 12:46:59;;;;;;;;;;;18.60;51.20;;;;;;5039756;27;93891;-61
2023/09/30 12:49:25;;;;;;;;;;;18.60;51.20;;;;;;5038562;28;95467;-62
2023/09/30 12:51:50;;;;;;;;;;;18.60;50.60;;;;;;5039310;27;92422;-62
2023/09/30 12:54:18;;;;;;;;;;;18.60;50.60;;;;;;5038528;27;92601;-61
2023/09/30 12:56:44;;;;;;;;;;;18.60;50.70;;;;;;5038795;27;92629;-62
2023/09/30 12:59:09;;;;;;;;;;;18.70;50.90;;;;;;5040402;27;92194;-62
2023/09/30 13:01:35;;;;;;;;;;;18.70;51.10;;;;;;5040706;27;93300;-62
2023/09/30 13:04:00;;;;;;;;;;;18.70;51.00;;;;;;5037804;27;93498;-62
2023/09/30 13:06:26;;;;;;;;;;;18.70;51.00;;;;;;5039430;27;95894;-62
2023/09/30 13:08:52;;;;;;;;;;;18.70;50.70;;;;;;5039752;28;93143;-62
2023/09/30 13:11:18;;;;;;;;;;;18.70;51.30;;;;;;5038218;27;92866;-62
2023/09/30 13:13:45;;;;;;;;;;;18.70;50.80;;;;;;5034867;27;92968;-62
2023/09/30 13:16:11;;;;;;;;;;;18.80;50.50;;;;;;5035876;28;93105;-61
2023/09/30 13:18:37;;;;;;;;;;;18.80;50.50;;;;;;5038974;28;92775;-62
2023/09/30 13:21:05;;;;;;;;;;;18.80;50.40;;;;;;5038560;27;92733;-62
2023/09/30 13:23:31;;;;;;;;;;;18.80;50.60;;;;;;5037157;28;93344;-61
2023/09/30 13:25:56;;;;;;;;;;;18.90;50.40;;;;;;5039999;28;92568;-62
2023/09/30 13:28:22;;;;;;;;;;;18.90;50.60;;;;;;5038294;27;94572;-62
2023/09/30 13:30:48;;;;;;;;;;;18.90;50.30;;;;;;5041397;27;92250;-62
2023/09/30 13:33:13;;;;;;;;;;;18.90;50.30;;;;;;5036330;27;92126;-62
2023/09/30 13:35:39;;;;;;;;;;;18.90;50.50;;;;;;5039372;28;93855;-61
2023/09/30 13:38:05;;;;;;;;;;;18.90;50.00;;;;;;5038316;27;92227;-62
2023/09/30 13:40:30;;;;;;;;;;;19.00;50.30;;;;;;5040581;27;92431;-61
2023/09/30 13:42:57;;;;;;;;;;;18.90;50.50;;;;;;5035297;28;93548;-62
2023/09/30 13:45:22;;;;;;;;;;;19.00;50.30;;;;;;5043163;27;91398;-62
2023/09/30 13:47:48;;;;;;;;;;;19.00;50.10;;;;;;5037507;27;93655;-62
2023/09/30 13:50:13;;;;;;;;;;;18.90;50.40;;;;;;5038052;27;92168;-62
2023/09/30 13:52:39;;;;;;;;;;;19.00;49.90;;;;;;5037559;27;93110;-62
2023/09/30 13:55:04;;;;;;;;;;;19.00;50.00;;;;;;5039036;28;93386;-62
2023/09/30 13:57:30;;;;;;;;;;;19.00;49.70;;;;;;5037556;27;92753;-63
2023/09/30 13:59:56;;;;;;;;;;;19.10;50.00;;;;;;5034249;27;92675;-62
2023/09/30 14:02:22;;;;;;;;;;;19.10;49.60;;;;;;5037794;28;93009;-62
2023/09/30 14:04:49;;;;;;;;;;;19.10;49.90;;;;;;5040686;28;92350;-62
2023/09/30 14:07:14;;;;;;;;;;;19.10;50.30;;;;;;5040022;27;92913;-62
2023/09/30 14:09:40;;;;;;;;;;;19.10;49.60;;;;;;5037624;27;91610;-61
2023/09/30 14:12:05;;;;;;;;;;;19.10;50.00;;;;;;5039365;27;92122;-60
2023/09/30 14:14:32;;;;;;;;;;;19.10;50.70;;;;;;5038406;27;92142;-62